sensor_id;sensor_type;location;lat;lon;timestamp;pressure;altitude;pressure_sealevel;temperature;humidity
62011;BME280;47967;51.756;10.174;2023-07-16T04:03:31;99274.59;;;21.44;78.21
62011;BME280;47967;51.756;10.174;2023-07-16T04:07:34;99279.88;;;21.36;78.68
62011;BME280;47967;51.756;10.174;2023-07-16T04:11:37;99290.63;;;21.27;79.11
62011;BME280;47967;51.756;10.174;2023-07-16T04:15:39;99301.34;;;21.23;78.89
62011;BME280;47967;51.756;10.174;2023-07-16T04:19:43;99312.91;;;21.20;79.06
62011;BME280;47967;51.756;10.174;2023-07-16T04:23:46;99320.88;;;21.11;79.06
62011;BME280;47967;51.756;10.174;2023-07-16T04:27:49;99338.41;;;21.21;78.50
62011;BME280;47967;51.756;10.174;2023-07-16T04:31:52;99335.78;;;21.50;77.50
62011;BME280;47967;51.756;10.174;2023-07-16T04:35:56;99346.41;;;21.67;75.99
62011;BME280;47967;51.756;10.174;2023-07-16T04:39:59;99346.16;;;22.03;71.79
62011;BME280;47967;51.756;10.174;2023-07-16T04:44:01;99351.97;;;21.97;72.35
62011;BME280;47967;51.756;10.174;2023-07-16T04:48:04;99356.72;;;21.86;72.71
62011;BME280;47967;51.756;10.174;2023-07-16T04:52:08;99363.09;;;22.16;70.71
62011;BME280;47967;51.756;10.174;2023-07-16T04:56:11;99366.81;;;22.30;70.76
62011;BME280;47967;51.756;10.174;2023-07-16T05:00:15;99370.69;;;22.29;70.93
62011;BME280;47967;51.756;10.174;2023-07-16T05:04:18;99379.09;;;22.43;70.14
62011;BME280;47967;51.756;10.174;2023-07-16T05:08:22;99384.41;;;22.64;67.87
62011;BME280;47967;51.756;10.174;2023-07-16T05:12:24;99390.63;;;22.75;68.09
62011;BME280;47967;51.756;10.174;2023-07-16T05:16:27;99398.31;;;22.78;68.46
62011;BME280;47967;51.756;10.174;2023-07-16T05:20:30;99400.28;;;22.72;68.17
62011;BME280;47967;51.756;10.174;2023-07-16T05:24:34;99403.81;;;22.78;67.98
62011;BME280;47967;51.756;10.174;2023-07-16T05:28:37;99408.53;;;22.72;67.72
62011;BME280;47967;51.756;10.174;2023-07-16T05:32:40;99412.00;;;22.83;67.99
62011;BME280;47967;51.756;10.174;2023-07-16T05:36:43;99413.91;;;22.82;66.70
62011;BME280;47967;51.756;10.174;2023-07-16T05:40:48;99424.69;;;22.79;65.82
62011;BME280;47967;51.756;10.174;2023-07-16T05:44:50;99431.38;;;23.26;64.79
62011;BME280;47967;51.756;10.174;2023-07-16T05:48:53;99443.19;;;23.51;63.58
62011;BME280;47967;51.756;10.174;2023-07-16T05:52:55;99443.00;;;23.42;64.02
62011;BME280;47967;51.756;10.174;2023-07-16T05:56:59;99452.84;;;23.48;62.74
62011;BME280;47967;51.756;10.174;2023-07-16T06:01:02;99456.59;;;23.58;62.70
62011;BME280;47967;51.756;10.174;2023-07-16T06:05:06;99456.44;;;23.49;61.88
62011;BME280;47967;51.756;10.174;2023-07-16T06:09:08;99455.31;;;23.74;61.64
62011;BME280;47967;51.756;10.174;2023-07-16T06:13:12;99459.25;;;23.68;61.54
62011;BME280;47967;51.756;10.174;2023-07-16T06:17:15;99457.00;;;23.46;61.66
62011;BME280;47967;51.756;10.174;2023-07-16T06:21:18;99466.16;;;23.12;61.97
62011;BME280;47967;51.756;10.174;2023-07-16T06:25:21;99469.03;;;23.01;62.18
62011;BME280;47967;51.756;10.174;2023-07-16T06:29:25;99463.81;;;23.00;62.06
62011;BME280;47967;51.756;10.174;2023-07-16T06:33:27;99479.22;;;23.01;62.65
62011;BME280;47967;51.756;10.174;2023-07-16T06:37:30;99470.09;;;23.06;61.65
62011;BME280;47967;51.756;10.174;2023-07-16T06:41:33;99479.31;;;23.20;61.48
62011;BME280;47967;51.756;10.174;2023-07-16T06:45:37;99484.75;;;23.30;59.92
62011;BME280;47967;51.756;10.174;2023-07-16T06:49:39;99487.19;;;23.56;57.93
62011;BME280;47967;51.756;10.174;2023-07-16T06:53:42;99486.78;;;23.87;57.33
62011;BME280;47967;51.756;10.174;2023-07-16T06:57:44;99488.47;;;24.26;57.77
62011;BME280;47967;51.756;10.174;2023-07-16T07:01:48;99496.16;;;24.29;54.49
62011;BME280;47967;51.756;10.174;2023-07-16T07:05:51;99492.66;;;24.24;54.80
62011;BME280;47967;51.756;10.174;2023-07-16T07:09:54;99499.91;;;24.20;54.61
62011;BME280;47967;51.756;10.174;2023-07-16T07:13:56;99510.31;;;24.04;55.07
62011;BME280;47967;51.756;10.174;2023-07-16T07:18:00;99509.56;;;23.74;55.85
62011;BME280;47967;51.756;10.174;2023-07-16T07:22:03;99503.97;;;23.79;55.37
62011;BME280;47967;51.756;10.174;2023-07-16T07:26:06;99500.44;;;24.22;54.63
62011;BME280;47967;51.756;10.174;2023-07-16T07:30:10;99507.13;;;24.54;53.72
62011;BME280;47967;51.756;10.174;2023-07-16T07:34:14;99493.94;;;24.32;52.70
62011;BME280;47967;51.756;10.174;2023-07-16T07:38:17;99508.75;;;24.17;52.75
62011;BME280;47967;51.756;10.174;2023-07-16T07:42:19;99508.38;;;24.23;50.12
62011;BME280;47967;51.756;10.174;2023-07-16T07:46:26;99512.38;;;23.93;50.52
62011;BME280;47967;51.756;10.174;2023-07-16T07:50:30;99528.53;;;24.00;50.53
62011;BME280;47967;51.756;10.174;2023-07-16T07:54:32;99519.47;;;24.37;49.96
62011;BME280;47967;51.756;10.174;2023-07-16T07:58:35;99516.53;;;24.72;50.13
62011;BME280;47967;51.756;10.174;2023-07-16T08:02:38;99527.72;;;24.94;49.54
62011;BME280;47967;51.756;10.174;2023-07-16T08:06:42;99528.72;;;24.46;48.32
62011;BME280;47967;51.756;10.174;2023-07-16T08:10:45;99521.28;;;23.85;48.65
62011;BME280;47967;51.756;10.174;2023-07-16T08:14:48;99536.53;;;23.53;48.75
62011;BME280;47967;51.756;10.174;2023-07-16T08:18:51;99532.47;;;23.69;48.88
62011;BME280;47967;51.756;10.174;2023-07-16T08:22:55;99533.72;;;23.58;49.35
62011;BME280;47967;51.756;10.174;2023-07-16T08:26:58;99532.13;;;23.52;49.18
62011;BME280;47967;51.756;10.174;2023-07-16T08:31:01;99529.84;;;23.83;49.25
62011;BME280;47967;51.756;10.174;2023-07-16T08:35:04;99527.84;;;24.51;48.27
62011;BME280;47967;51.756;10.174;2023-07-16T08:39:08;99526.84;;;24.80;46.38
62011;BME280;47967;51.756;10.174;2023-07-16T08:43:11;99529.00;;;24.83;46.11
62011;BME280;47967;51.756;10.174;2023-07-16T08:47:15;99531.91;;;24.92;46.09
62011;BME280;47967;51.756;10.174;2023-07-16T08:51:20;99530.44;;;24.81;45.68
62011;BME280;47967;51.756;10.174;2023-07-16T08:55:24;99525.34;;;25.21;45.72
62011;BME280;47967;51.756;10.174;2023-07-16T08:59:27;99535.53;;;25.20;43.97
62011;BME280;47967;51.756;10.174;2023-07-16T09:03:30;99531.69;;;25.35;44.26
62011;BME280;47967;51.756;10.174;2023-07-16T09:07:33;99528.47;;;25.75;44.08
62011;BME280;47967;51.756;10.174;2023-07-16T09:11:46;99522.53;;;25.82;42.41
62011;BME280;47967;51.756;10.174;2023-07-16T09:15:50;99525.66;;;26.03;41.42
62011;BME280;47967;51.756;10.174;2023-07-16T09:19:53;99539.50;;;26.17;42.26
62011;BME280;47967;51.756;10.174;2023-07-16T09:23:56;99539.59;;;26.26;41.19
62011;BME280;47967;51.756;10.174;2023-07-16T09:28:02;99545.13;;;26.26;41.56
62011;BME280;47967;51.756;10.174;2023-07-16T09:32:05;99528.22;;;26.50;41.23
62011;BME280;47967;51.756;10.174;2023-07-16T09:36:08;99539.06;;;26.60;40.25
62011;BME280;47967;51.756;10.174;2023-07-16T09:40:12;99543.03;;;26.68;38.92
62011;BME280;47967;51.756;10.174;2023-07-16T09:44:17;99546.97;;;26.90;40.20
62011;BME280;47967;51.756;10.174;2023-07-16T09:48:20;99546.75;;;27.40;39.00
62011;BME280;47967;51.756;10.174;2023-07-16T09:52:22;99552.09;;;27.59;38.71
62011;BME280;47967;51.756;10.174;2023-07-16T09:56:26;99555.41;;;27.39;38.17
62011;BME280;47967;51.756;10.174;2023-07-16T10:00:35;99563.56;;;26.90;39.82
62011;BME280;47967;51.756;10.174;2023-07-16T10:04:40;99563.53;;;26.81;39.03
62011;BME280;47967;51.756;10.174;2023-07-16T10:08:48;99560.47;;;26.68;39.64
62011;BME280;47967;51.756;10.174;2023-07-16T10:12:55;99567.78;;;26.50;40.55
62011;BME280;47967;51.756;10.174;2023-07-16T10:17:02;99575.63;;;26.71;38.96
62011;BME280;47967;51.756;10.174;2023-07-16T10:21:08;99572.69;;;26.53;39.18
62011;BME280;47967;51.756;10.174;2023-07-16T10:25:22;99573.94;;;26.47;39.11
62011;BME280;47967;51.756;10.174;2023-07-16T10:29:25;99581.38;;;26.97;37.68
62011;BME280;47967;51.756;10.174;2023-07-16T10:33:29;99569.78;;;27.41;37.17
62011;BME280;47967;51.756;10.174;2023-07-16T10:37:32;99564.53;;;27.39;37.35
62011;BME280;47967;51.756;10.174;2023-07-16T10:41:35;99572.97;;;27.03;36.46
62011;BME280;47967;51.756;10.174;2023-07-16T10:45:38;99574.84;;;27.47;36.67
62011;BME280;47967;51.756;10.174;2023-07-16T10:49:42;99574.78;;;27.39;35.96
62011;BME280;47967;51.756;10.174;2023-07-16T10:53:45;99583.03;;;26.76;36.04
62011;BME280;47967;51.756;10.174;2023-07-16T10:57:48;99583.91;;;26.85;37.26
62011;BME280;47967;51.756;10.174;2023-07-16T11:01:51;99579.91;;;27.23;35.75
62011;BME280;47967;51.756;10.174;2023-07-16T11:05:55;99577.84;;;27.60;36.06
62011;BME280;47967;51.756;10.174;2023-07-16T11:09:57;99584.44;;;27.41;35.37
62011;BME280;47967;51.756;10.174;2023-07-16T11:14:04;99579.53;;;27.38;35.69
62011;BME280;47967;51.756;10.174;2023-07-16T11:18:07;99584.00;;;27.48;35.39
62011;BME280;47967;51.756;10.174;2023-07-16T11:22:11;99571.69;;;27.09;35.88
62011;BME280;47967;51.756;10.174;2023-07-16T11:26:14;99577.16;;;27.45;35.24
62011;BME280;47967;51.756;10.174;2023-07-16T11:30:22;99578.50;;;27.97;35.70
62011;BME280;47967;51.756;10.174;2023-07-16T11:34:25;99574.13;;;28.14;35.29
62011;BME280;47967;51.756;10.174;2023-07-16T11:38:29;99575.66;;;28.64;34.53
62011;BME280;47967;51.756;10.174;2023-07-16T11:42:33;99570.22;;;28.06;36.30
62011;BME280;47967;51.756;10.174;2023-07-16T11:46:35;99574.16;;;27.73;35.41
62011;BME280;47967;51.756;10.174;2023-07-16T11:50:38;99584.66;;;27.94;34.49
62011;BME280;47967;51.756;10.174;2023-07-16T11:54:42;99582.91;;;27.58;35.35
62011;BME280;47967;51.756;10.174;2023-07-16T11:58:45;99586.13;;;27.91;34.38
62011;BME280;47967;51.756;10.174;2023-07-16T12:02:48;99587.16;;;28.04;33.44
62011;BME280;47967;51.756;10.174;2023-07-16T12:06:53;99589.84;;;27.87;33.59
62011;BME280;47967;51.756;10.174;2023-07-16T12:10:57;99586.31;;;27.55;33.98
62011;BME280;47967;51.756;10.174;2023-07-16T12:15:04;99583.31;;;27.74;34.58
62011;BME280;47967;51.756;10.174;2023-07-16T12:19:08;99578.09;;;27.41;35.51
62011;BME280;47967;51.756;10.174;2023-07-16T12:23:11;99580.63;;;27.60;33.81
62011;BME280;47967;51.756;10.174;2023-07-16T12:27:15;99580.03;;;28.12;33.33
62011;BME280;47967;51.756;10.174;2023-07-16T12:31:18;99585.56;;;28.21;33.22
62011;BME280;47967;51.756;10.174;2023-07-16T12:35:21;99587.22;;;27.82;33.51
62011;BME280;47967;51.756;10.174;2023-07-16T12:39:24;99578.13;;;27.81;33.90
62011;BME280;47967;51.756;10.174;2023-07-16T12:43:28;99583.19;;;28.46;33.08
62011;BME280;47967;51.756;10.174;2023-07-16T12:47:31;99585.97;;;28.63;32.45
62011;BME280;47967;51.756;10.174;2023-07-16T12:51:34;99587.47;;;28.78;32.23
62011;BME280;47967;51.756;10.174;2023-07-16T12:55:36;99592.16;;;28.51;32.38
62011;BME280;47967;51.756;10.174;2023-07-16T12:59:40;99588.75;;;28.46;32.41
62011;BME280;47967;51.756;10.174;2023-07-16T13:03:43;99588.91;;;29.11;33.17
62011;BME280;47967;51.756;10.174;2023-07-16T13:07:46;99591.47;;;29.24;33.32
62011;BME280;47967;51.756;10.174;2023-07-16T13:11:49;99596.06;;;29.38;33.07
62011;BME280;47967;51.756;10.174;2023-07-16T13:15:53;99599.63;;;29.47;31.78
62011;BME280;47967;51.756;10.174;2023-07-16T13:19:56;99598.69;;;29.43;31.55
62011;BME280;47967;51.756;10.174;2023-07-16T13:23:59;99591.00;;;29.14;31.97
62011;BME280;47967;51.756;10.174;2023-07-16T13:28:02;99596.91;;;29.30;31.21
62011;BME280;47967;51.756;10.174;2023-07-16T13:32:07;99607.06;;;29.73;29.88
62011;BME280;47967;51.756;10.174;2023-07-16T13:36:09;99600.75;;;29.55;30.55
62011;BME280;47967;51.756;10.174;2023-07-16T13:40:12;99612.28;;;29.75;31.58
62011;BME280;47967;51.756;10.174;2023-07-16T13:44:15;99608.44;;;29.58;30.76
62011;BME280;47967;51.756;10.174;2023-07-16T13:48:19;99600.03;;;30.14;30.30
62011;BME280;47967;51.756;10.174;2023-07-16T13:52:22;99607.06;;;30.42;29.13
62011;BME280;47967;51.756;10.174;2023-07-16T13:56:24;99598.47;;;30.56;29.17
62011;BME280;47967;51.756;10.174;2023-07-16T14:00:27;99618.53;;;30.40;29.67
62011;BME280;47967;51.756;10.174;2023-07-16T14:04:32;99622.22;;;30.95;28.42
62011;BME280;47967;51.756;10.174;2023-07-16T14:08:35;99611.03;;;30.83;28.01
62011;BME280;47967;51.756;10.174;2023-07-16T14:12:37;99611.41;;;30.30;29.30
62011;BME280;47967;51.756;10.174;2023-07-16T14:16:40;99600.41;;;30.64;28.75
62011;BME280;47967;51.756;10.174;2023-07-16T14:20:44;99598.25;;;30.10;28.66
62011;BME280;47967;51.756;10.174;2023-07-16T14:24:47;99609.63;;;29.96;29.17
62011;BME280;47967;51.756;10.174;2023-07-16T14:28:52;99613.78;;;29.72;29.45
62011;BME280;47967;51.756;10.174;2023-07-16T14:32:55;99605.03;;;30.30;29.04
62011;BME280;47967;51.756;10.174;2023-07-16T14:36:59;99587.56;;;30.21;28.61
62011;BME280;47967;51.756;10.174;2023-07-16T14:41:04;99596.03;;;30.24;28.92
62011;BME280;47967;51.756;10.174;2023-07-16T14:45:09;99598.69;;;30.50;29.10
62011;BME280;47967;51.756;10.174;2023-07-16T14:49:12;99600.00;;;31.41;27.19
62011;BME280;47967;51.756;10.174;2023-07-16T14:53:16;99614.97;;;30.82;27.49
62011;BME280;47967;51.756;10.174;2023-07-16T14:57:19;99612.84;;;30.58;28.60
62011;BME280;47967;51.756;10.174;2023-07-16T15:01:22;99607.47;;;31.62;27.79
62011;BME280;47967;51.756;10.174;2023-07-16T15:05:25;99608.03;;;32.79;26.96
62011;BME280;47967;51.756;10.174;2023-07-16T15:09:29;99604.41;;;32.91;25.92
62011;BME280;47967;51.756;10.174;2023-07-16T15:13:32;99612.56;;;32.84;25.95
62011;BME280;47967;51.756;10.174;2023-07-16T15:17:34;99605.09;;;33.77;24.31
62011;BME280;47967;51.756;10.174;2023-07-16T15:21:37;99603.19;;;33.97;25.00
62011;BME280;47967;51.756;10.174;2023-07-16T15:25:42;99612.03;;;33.51;24.25
62011;BME280;47967;51.756;10.174;2023-07-16T15:29:45;99604.06;;;32.27;25.64
62011;BME280;47967;51.756;10.174;2023-07-16T15:33:49;99608.59;;;32.72;25.36
62011;BME280;47967;51.756;10.174;2023-07-16T15:37:51;99607.69;;;33.38;24.88
62011;BME280;47967;51.756;10.174;2023-07-16T15:41:55;99599.41;;;33.89;24.39
62011;BME280;47967;51.756;10.174;2023-07-16T15:45:58;99599.13;;;34.10;24.16
62011;BME280;47967;51.756;10.174;2023-07-16T15:50:01;99609.09;;;32.62;25.25
62011;BME280;47967;51.756;10.174;2023-07-16T15:54:04;99593.25;;;32.79;26.02
62011;BME280;47967;51.756;10.174;2023-07-16T15:58:08;99595.91;;;32.87;25.31
62011;BME280;47967;51.756;10.174;2023-07-16T16:02:11;99616.31;;;33.04;25.04
62011;BME280;47967;51.756;10.174;2023-07-16T16:06:14;99606.78;;;33.05;25.00
62011;BME280;47967;51.756;10.174;2023-07-16T16:10:17;99611.22;;;34.14;23.92
62011;BME280;47967;51.756;10.174;2023-07-16T16:14:21;99605.97;;;34.29;24.50
62011;BME280;47967;51.756;10.174;2023-07-16T16:18:24;99604.78;;;34.85;23.63
62011;BME280;47967;51.756;10.174;2023-07-16T16:22:26;99606.72;;;35.01;22.79
62011;BME280;47967;51.756;10.174;2023-07-16T16:26:29;99603.97;;;35.04;23.07
62011;BME280;47967;51.756;10.174;2023-07-16T16:30:34;99614.84;;;33.67;23.57
62011;BME280;47967;51.756;10.174;2023-07-16T16:34:37;99608.84;;;33.36;24.03
62011;BME280;47967;51.756;10.174;2023-07-16T16:38:41;99606.16;;;34.04;23.85
62011;BME280;47967;51.756;10.174;2023-07-16T16:42:45;99607.44;;;34.07;24.81
62011;BME280;47967;51.756;10.174;2023-07-16T16:46:49;99607.63;;;35.05;23.28
62011;BME280;47967;51.756;10.174;2023-07-16T16:50:54;99609.16;;;35.22;23.54
62011;BME280;47967;51.756;10.174;2023-07-16T16:54:56;99619.66;;;35.48;23.30
62011;BME280;47967;51.756;10.174;2023-07-16T16:58:59;99608.44;;;35.71;22.62
62011;BME280;47967;51.756;10.174;2023-07-16T17:03:03;99612.03;;;35.25;23.55
62011;BME280;47967;51.756;10.174;2023-07-16T17:07:06;99619.16;;;35.23;23.99
62011;BME280;47967;51.756;10.174;2023-07-16T17:11:10;99617.06;;;34.97;23.54
62011;BME280;47967;51.756;10.174;2023-07-16T17:15:13;99622.00;;;33.96;24.44
62011;BME280;47967;51.756;10.174;2023-07-16T17:19:17;99623.13;;;33.19;25.49
62011;BME280;47967;51.756;10.174;2023-07-16T17:23:19;99615.81;;;32.33;26.01
62011;BME280;47967;51.756;10.174;2023-07-16T17:27:22;99626.50;;;31.48;27.17
62011;BME280;47967;51.756;10.174;2023-07-16T17:31:25;99617.28;;;30.59;29.07
62011;BME280;47967;51.756;10.174;2023-07-16T17:35:29;99619.78;;;29.92;29.77
62011;BME280;47967;51.756;10.174;2023-07-16T17:39:32;99626.00;;;29.23;30.96
62011;BME280;47967;51.756;10.174;2023-07-16T17:43:34;99634.16;;;29.02;31.49
62011;BME280;47967;51.756;10.174;2023-07-16T17:47:37;99633.38;;;29.02;30.74
62011;BME280;47967;51.756;10.174;2023-07-16T17:51:41;99633.50;;;29.41;30.74
62011;BME280;47967;51.756;10.174;2023-07-16T17:55:44;99637.69;;;30.12;29.54
62011;BME280;47967;51.756;10.174;2023-07-16T17:59:47;99635.81;;;30.76;29.01
62011;BME280;47967;51.756;10.174;2023-07-16T18:03:49;99635.44;;;31.41;28.63
62011;BME280;47967;51.756;10.174;2023-07-16T18:07:54;99632.91;;;30.93;28.70
62011;BME280;47967;51.756;10.174;2023-07-16T18:11:56;99638.97;;;30.53;29.29
62011;BME280;47967;51.756;10.174;2023-07-16T18:15:59;99638.44;;;29.82;30.32
62011;BME280;47967;51.756;10.174;2023-07-16T18:20:02;99639.09;;;28.97;31.99
62011;BME280;47967;51.756;10.174;2023-07-16T18:24:07;99638.53;;;28.42;33.63
62011;BME280;47967;51.756;10.174;2023-07-16T18:28:10;99645.28;;;27.78;35.48
62011;BME280;47967;51.756;10.174;2023-07-16T18:32:13;99640.91;;;27.31;35.59
62011;BME280;47967;51.756;10.174;2023-07-16T18:36:15;99651.66;;;26.88;38.06
62011;BME280;47967;51.756;10.174;2023-07-16T18:40:20;99653.78;;;26.54;39.51
62011;BME280;47967;51.756;10.174;2023-07-16T18:44:23;99653.78;;;26.26;40.29
62011;BME280;47967;51.756;10.174;2023-07-16T18:48:25;99649.53;;;25.73;42.27
62011;BME280;47967;51.756;10.174;2023-07-16T18:52:28;99656.56;;;25.51;42.48
62011;BME280;47967;51.756;10.174;2023-07-16T18:56:32;99656.63;;;25.46;42.12
62011;BME280;47967;51.756;10.174;2023-07-16T19:00:35;99657.34;;;25.38;41.04
62011;BME280;47967;51.756;10.174;2023-07-16T19:04:38;99670.66;;;24.98;43.30
62011;BME280;47967;51.756;10.174;2023-07-16T19:08:40;99671.91;;;24.67;43.23
62011;BME280;47967;51.756;10.174;2023-07-16T19:12:44;99669.78;;;24.59;42.51
62011;BME280;47967;51.756;10.174;2023-07-16T19:16:48;99673.91;;;24.37;43.04
62011;BME280;47967;51.756;10.174;2023-07-16T19:20:50;99673.50;;;24.25;43.73
62011;BME280;47967;51.756;10.174;2023-07-16T19:24:53;99675.19;;;23.96;44.46
62011;BME280;47967;51.756;10.174;2023-07-16T19:28:57;99676.97;;;23.82;45.23
62011;BME280;47967;51.756;10.174;2023-07-16T19:33:00;99691.59;;;23.48;46.26
62011;BME280;47967;51.756;10.174;2023-07-16T19:37:03;99692.16;;;23.05;47.64
62011;BME280;47967;51.756;10.174;2023-07-16T19:41:06;99703.63;;;22.78;47.45
62011;BME280;47967;51.756;10.174;2023-07-16T19:45:10;99709.38;;;22.76;48.00
62011;BME280;47967;51.756;10.174;2023-07-16T19:49:13;99712.78;;;22.58;49.26
62011;BME280;47967;51.756;10.174;2023-07-16T19:53:16;99724.09;;;22.46;49.76
62011;BME280;47967;51.756;10.174;2023-07-16T19:57:18;99722.50;;;22.24;50.63
62011;BME280;47967;51.756;10.174;2023-07-16T20:01:22;99727.47;;;22.01;51.69
62011;BME280;47967;51.756;10.174;2023-07-16T20:05:25;99737.38;;;21.71;51.75
62011;BME280;47967;51.756;10.174;2023-07-16T20:09:28;99735.97;;;21.33;52.99
62011;BME280;47967;51.756;10.174;2023-07-16T20:13:31;99729.13;;;21.46;51.29
62011;BME280;47967;51.756;10.174;2023-07-16T20:17:34;99740.13;;;21.71;51.27
62011;BME280;47967;51.756;10.174;2023-07-16T20:21:37;99735.97;;;21.33;53.85
62011;BME280;47967;51.756;10.174;2023-07-16T20:25:41;99742.50;;;21.06;54.27
62011;BME280;47967;51.756;10.174;2023-07-16T20:29:45;99735.28;;;20.26;55.85
62011;BME280;47967;51.756;10.174;2023-07-16T20:33:49;99737.38;;;20.08;56.50
62011;BME280;47967;51.756;10.174;2023-07-16T20:37:52;99739.56;;;20.06;57.48
62011;BME280;47967;51.756;10.174;2023-07-16T20:41:54;99740.88;;;19.98;57.50
62011;BME280;47967;51.756;10.174;2023-07-16T20:45:57;99742.16;;;19.86;58.25
62011;BME280;47967;51.756;10.174;2023-07-16T20:50:01;99733.00;;;19.75;58.47
62011;BME280;47967;51.756;10.174;2023-07-16T20:54:04;99732.41;;;19.35;59.09
62011;BME280;47967;51.756;10.174;2023-07-16T20:58:09;99745.56;;;19.11;59.71
